Terminal Aerodrome Forecast
Issued by NWS Sioux Falls, SD

Home | Current Version | Previous Version | Graphics & Text | Print | Product List | Glossary On
Versions: 1 2 3 4 5 6 7 8 9 10 11 12 13 14 15 16 17 18 19
851
FTUS43 KFSD 230925 AAC
TAFFSD
TAF AMD
KFSD 230925Z 2309/2406 11006KT P6SM SCT007 BKN030
      TEMPO 2309/2310 BKN007
     FM231000 23011KT 6SM -SHRA SCT012 OVC035
      TEMPO 2310/2311 VRB30KT 4SM TSRA OVC035CB
     FM231200 14007KT P6SM BKN070
     FM231300 14008KT P6SM BKN120
     FM231800 17012G18KT P6SM FEW035 SCT120
     FM232300 22010KT P6SM FEW050 SCT110
     FM240200 30008KT P6SM SCT140=

USA.gov is the U.S. government's official web portal to all federal, state and local government web resources and services.